createdAt,value
2023-04-27T00:00:54.967Z,54.20
2023-04-27T00:03:57.333Z,54.07
2023-04-27T00:06:58.929Z,54.32
2023-04-27T00:10:00.546Z,54.29
2023-04-27T00:13:02.372Z,54.08
2023-04-27T00:16:04.106Z,53.64
2023-04-27T00:19:05.716Z,54.16
2023-04-27T00:22:08.251Z,53.69
2023-04-27T00:25:09.906Z,53.97
2023-04-27T00:28:11.486Z,53.91
2023-04-27T00:31:13.031Z,54.03
2023-04-27T00:34:14.604Z,53.69
2023-04-27T00:37:16.403Z,53.80
2023-04-27T00:40:17.987Z,53.85
2023-04-27T00:43:19.558Z,53.56
2023-04-27T00:46:21.506Z,53.78
2023-04-27T00:49:23.684Z,54.00
2023-04-27T00:52:26.003Z,54.07
2023-04-27T00:55:27.587Z,54.55
2023-04-27T00:58:30.256Z,54.96
2023-04-27T01:01:33.999Z,54.63
2023-04-27T01:04:36.941Z,54.57
2023-04-27T01:07:39.864Z,54.68
2023-04-27T01:10:41.655Z,54.37
2023-04-27T01:13:45.078Z,54.46
2023-04-27T01:16:46.630Z,54.80
2023-04-27T01:19:48.221Z,54.54
2023-04-27T01:22:51.573Z,54.87
2023-04-27T01:25:53.047Z,54.84
2023-04-27T01:28:55.562Z,54.83
2023-04-27T01:31:57.060Z,54.73
2023-04-27T01:34:58.553Z,54.65
2023-04-27T01:38:01.355Z,54.77
2023-04-27T01:41:07.173Z,54.76
2023-04-27T01:44:09.193Z,54.63
2023-04-27T01:47:10.798Z,55.04
2023-04-27T01:50:12.323Z,55.06
2023-04-27T01:53:14.246Z,54.81
2023-04-27T01:56:15.953Z,54.85
2023-04-27T01:59:17.453Z,54.89
2023-04-27T02:02:19.008Z,54.67
2023-04-27T02:05:20.667Z,55.14
2023-04-27T02:08:22.658Z,55.19
2023-04-27T02:11:24.185Z,55.32
2023-04-27T02:14:25.664Z,55.15
2023-04-27T02:17:27.248Z,55.49
2023-04-27T02:20:30.527Z,54.26
2023-04-27T02:23:31.952Z,53.84
2023-04-27T02:26:33.384Z,54.50
2023-04-27T02:29:38.755Z,62.38
2023-04-27T02:32:41.447Z,64.34
2023-04-27T02:35:43.013Z,65.08
2023-04-27T02:38:44.554Z,65.64
2023-04-27T02:41:46.022Z,65.76
2023-04-27T02:44:47.998Z,65.89
2023-04-27T02:47:50.907Z,66.13
2023-04-27T02:50:52.594Z,66.16
2023-04-27T02:53:54.350Z,66.13
2023-04-27T02:56:55.830Z,66.34
2023-04-27T02:59:57.301Z,66.61
2023-04-27T03:02:58.968Z,66.23
2023-04-27T03:06:00.631Z,66.25
2023-04-27T03:09:05.396Z,66.38
2023-04-27T03:12:07.020Z,66.64
2023-04-27T03:15:09.182Z,67.01
2023-04-27T03:18:11.365Z,66.80
2023-04-27T03:21:13.427Z,66.96
2023-04-27T03:24:15.618Z,66.85
2023-04-27T03:27:17.653Z,66.55
2023-04-27T03:30:19.315Z,66.65
2023-04-27T03:33:21.189Z,66.84
2023-04-27T03:36:22.703Z,66.62
2023-04-27T03:39:24.272Z,66.72
2023-04-27T03:42:25.795Z,66.71
2023-04-27T03:45:27.642Z,66.91
2023-04-27T03:48:29.184Z,66.94
2023-04-27T03:51:34.213Z,67.37
2023-04-27T03:54:36.326Z,67.39
2023-04-27T03:57:37.880Z,67.36
2023-04-27T04:00:39.748Z,67.05
2023-04-27T04:03:41.470Z,67.28
2023-04-27T04:06:43.592Z,67.25
2023-04-27T04:09:46.395Z,67.03
2023-04-27T04:12:47.866Z,66.83
2023-04-27T04:15:49.473Z,66.99
2023-04-27T04:18:51.288Z,66.93
2023-04-27T04:21:54.521Z,67.20
2023-04-27T04:24:56.012Z,67.16
2023-04-27T04:27:57.987Z,67.18
2023-04-27T04:31:01.460Z,67.24
2023-04-27T04:34:03.578Z,67.04
2023-04-27T04:37:05.439Z,67.10
2023-04-27T04:40:09.761Z,66.76
2023-04-27T04:43:12.200Z,66.61
2023-04-27T04:46:13.677Z,66.99
2023-04-27T04:49:15.589Z,66.81
2023-04-27T04:52:17.296Z,66.93
2023-04-27T04:55:19.638Z,66.92
2023-04-27T04:58:21.321Z,66.73
2023-04-27T05:01:23.224Z,66.62
2023-04-27T05:04:24.895Z,66.43
2023-04-27T05:07:26.812Z,66.43
2023-04-27T05:10:28.416Z,66.13
2023-04-27T05:13:30.022Z,65.96
2023-04-27T05:16:31.658Z,65.71
2023-04-27T05:19:33.217Z,65.54
2023-04-27T05:22:34.737Z,65.36
2023-04-27T05:25:41.745Z,65.01
2023-04-27T05:28:43.757Z,64.62
2023-04-27T05:31:45.350Z,64.63
2023-04-27T05:34:49.323Z,64.73
2023-04-27T05:37:51.084Z,64.46
2023-04-27T05:40:58.760Z,64.16
2023-04-27T05:44:00.282Z,63.99
2023-04-27T05:47:01.876Z,63.60
2023-04-27T05:50:03.872Z,63.34
2023-04-27T05:53:05.658Z,63.09
2023-04-27T05:56:07.537Z,62.53
2023-04-27T05:59:09.678Z,62.21
2023-04-27T06:02:11.312Z,61.83
2023-04-27T06:05:14.241Z,61.12
2023-04-27T06:08:15.678Z,60.09
2023-04-27T06:11:17.974Z,59.32
2023-04-27T06:14:19.396Z,58.73
2023-04-27T06:17:21.803Z,58.31
2023-04-27T06:20:23.452Z,58.33
2023-04-27T06:23:25.018Z,58.13
2023-04-27T06:26:26.890Z,57.92
2023-04-27T06:29:28.354Z,57.56
2023-04-27T06:32:30.072Z,57.12
2023-04-27T06:35:32.000Z,56.79
2023-04-27T06:38:33.498Z,56.22
2023-04-27T06:41:34.981Z,49.27
2023-04-27T06:44:36.601Z,48.16
2023-04-27T06:47:38.071Z,48.30
2023-04-27T06:50:39.872Z,51.01
2023-04-27T06:53:41.475Z,45.65
2023-04-27T06:56:43.303Z,48.35
2023-04-27T06:59:45.384Z,48.58
2023-04-27T07:02:46.962Z,48.56
2023-04-27T07:05:48.551Z,48.01
2023-04-27T07:08:50.049Z,47.48
2023-04-27T07:11:51.531Z,47.17
2023-04-27T07:14:53.017Z,46.59
2023-04-27T07:17:54.594Z,46.42
2023-04-27T07:20:58.041Z,46.18
2023-04-27T07:23:59.587Z,45.95
2023-04-27T07:27:02.632Z,45.85
2023-04-27T07:30:06.654Z,46.79
2023-04-27T07:33:08.822Z,46.42
2023-04-27T07:36:10.377Z,46.89
2023-04-27T07:39:12.623Z,46.81
2023-04-27T07:42:15.309Z,46.57
2023-04-27T07:45:19.480Z,46.27
2023-04-27T07:48:21.666Z,46.26
2023-04-27T07:51:23.186Z,46.00
2023-04-27T07:54:24.750Z,45.78
2023-04-27T07:57:26.263Z,45.63
2023-04-27T08:00:27.820Z,44.79
2023-04-27T08:03:29.473Z,44.75
2023-04-27T08:06:31.410Z,44.66
2023-04-27T08:09:33.041Z,44.13
2023-04-27T08:12:34.883Z,43.60
2023-04-27T08:15:37.252Z,43.42
2023-04-27T08:18:38.726Z,43.35
2023-04-27T08:21:40.510Z,43.19
2023-04-27T08:24:42.039Z,42.56
2023-04-27T08:27:43.515Z,42.27
2023-04-27T08:30:45.007Z,42.56
2023-04-27T08:33:46.958Z,42.98
2023-04-27T08:36:48.409Z,42.97
2023-04-27T08:39:49.950Z,42.77
2023-04-27T08:42:57.033Z,42.62
2023-04-27T08:45:58.521Z,43.02
2023-04-27T08:49:00.006Z,43.06
2023-04-27T08:52:02.192Z,43.23
2023-04-27T08:55:04.813Z,42.89
2023-04-27T08:58:06.257Z,42.58
2023-04-27T09:01:08.422Z,43.00
2023-04-27T09:04:11.820Z,42.94
2023-04-27T09:07:18.211Z,43.54
2023-04-27T09:10:19.712Z,43.45
2023-04-27T09:13:21.757Z,42.66
2023-04-27T09:16:25.100Z,42.38
2023-04-27T09:19:28.545Z,42.20
2023-04-27T09:22:30.019Z,41.75
2023-04-27T09:25:32.999Z,41.73
2023-04-27T09:28:38.277Z,41.63
2023-04-27T09:31:39.788Z,41.71
2023-04-27T09:34:41.396Z,42.03
2023-04-27T09:37:43.786Z,42.15
2023-04-27T09:40:45.553Z,41.96
2023-04-27T09:43:47.457Z,42.01
2023-04-27T09:46:49.949Z,41.98
2023-04-27T09:49:52.053Z,42.33
2023-04-27T09:52:53.544Z,42.08
2023-04-27T09:56:22.939Z,41.66
2023-04-27T09:59:44.481Z,41.51
2023-04-27T10:02:58.393Z,40.81
2023-04-27T10:06:20.858Z,40.69
2023-04-27T10:09:23.675Z,40.59
2023-04-27T10:12:39.182Z,40.23
2023-04-27T10:15:40.797Z,40.49
2023-04-27T10:18:52.782Z,39.97
2023-04-27T10:21:56.966Z,39.78
2023-04-27T10:24:58.596Z,39.84
2023-04-27T10:28:02.622Z,40.29
2023-04-27T10:31:11.073Z,39.55
2023-04-27T10:34:19.147Z,39.51
2023-04-27T10:37:25.661Z,40.46
2023-04-27T10:40:34.152Z,40.00
2023-04-27T10:43:35.840Z,39.46
2023-04-27T10:46:49.832Z,39.96
2023-04-27T10:49:57.016Z,39.66
2023-04-27T10:53:04.758Z,40.23
2023-04-27T10:56:07.058Z,39.97
2023-04-27T10:59:08.981Z,39.18
2023-04-27T11:02:12.244Z,39.19
2023-04-27T11:05:22.424Z,39.37
2023-04-27T11:08:24.282Z,39.92
2023-04-27T11:11:26.354Z,40.65
2023-04-27T11:14:28.878Z,40.14
2023-04-27T11:17:30.875Z,39.70
2023-04-27T11:20:32.483Z,38.82
2023-04-27T11:23:38.453Z,37.86
2023-04-27T11:26:39.991Z,37.97
2023-04-27T11:29:42.456Z,38.40
2023-04-27T11:32:44.121Z,38.21
2023-04-27T11:35:46.081Z,38.40
2023-04-27T11:38:47.665Z,37.68
2023-04-27T11:41:49.200Z,37.02
2023-04-27T11:44:54.625Z,35.30
2023-04-27T11:47:59.026Z,36.27
2023-04-27T11:51:01.347Z,37.27
2023-04-27T11:54:07.259Z,37.14
2023-04-27T11:57:10.063Z,36.64
2023-04-27T12:00:14.258Z,36.48
2023-04-27T12:03:17.213Z,36.46
2023-04-27T12:06:32.614Z,35.79
2023-04-27T12:09:35.020Z,35.87
2023-04-27T12:12:36.637Z,35.93
2023-04-27T12:15:39.031Z,35.98
2023-04-27T12:18:40.530Z,35.89
2023-04-27T12:21:42.705Z,36.17
2023-04-27T12:27:47.971Z,35.81
2023-04-27T12:30:49.690Z,35.26
2023-04-27T12:33:51.862Z,34.74
2023-04-27T12:36:53.357Z,34.79
2023-04-27T12:39:55.169Z,35.39
2023-04-27T12:42:57.923Z,34.61
2023-04-27T12:46:00.578Z,34.20
2023-04-27T12:49:02.184Z,34.52
2023-04-27T12:52:03.773Z,35.02
2023-04-27T12:55:06.333Z,35.05
2023-04-27T12:58:07.912Z,34.96
2023-04-27T13:01:14.711Z,34.95
2023-04-27T13:04:20.792Z,35.00
2023-04-27T13:07:23.039Z,35.08
2023-04-27T13:10:24.631Z,35.01
2023-04-27T13:13:26.227Z,35.23
2023-04-27T13:16:27.688Z,34.73
2023-04-27T13:19:29.192Z,34.88
2023-04-27T13:22:30.725Z,34.34
2023-04-27T13:25:32.297Z,33.92
2023-04-27T13:28:33.827Z,33.38
2023-04-27T13:31:35.707Z,32.98
2023-04-27T13:34:37.191Z,32.93
2023-04-27T13:37:40.058Z,32.79
2023-04-27T13:40:41.734Z,32.41
2023-04-27T13:43:43.675Z,31.98
2023-04-27T13:46:45.330Z,32.30
2023-04-27T13:49:46.809Z,32.77
2023-04-27T13:52:48.276Z,32.88
2023-04-27T13:55:49.742Z,32.87
2023-04-27T13:58:51.399Z,32.39
2023-04-27T14:01:53.077Z,33.17
2023-04-27T14:04:55.075Z,33.36
2023-04-27T14:07:56.595Z,33.17
2023-04-27T14:10:58.231Z,32.69
2023-04-27T14:13:59.680Z,32.93
2023-04-27T14:17:01.365Z,31.78
2023-04-27T14:20:04.409Z,32.37
2023-04-27T14:23:06.887Z,33.28
2023-04-27T14:26:09.167Z,33.45
2023-04-27T14:29:11.561Z,33.29
2023-04-27T14:32:13.461Z,32.66
2023-04-27T14:35:15.071Z,32.18
2023-04-27T14:38:16.532Z,31.67
2023-04-27T14:41:18.085Z,31.97
2023-04-27T14:44:19.566Z,32.20
2023-04-27T14:47:21.144Z,31.86
2023-04-27T14:50:22.685Z,31.80
2023-04-27T14:53:25.401Z,31.33
2023-04-27T14:56:27.569Z,31.43
2023-04-27T14:59:29.544Z,31.11
2023-04-27T15:02:33.841Z,30.17
2023-04-27T15:05:35.703Z,29.37
2023-04-27T15:08:37.185Z,29.60
2023-04-27T15:11:38.896Z,30.67
2023-04-27T15:14:40.607Z,31.08
2023-04-27T15:17:42.113Z,31.09
2023-04-27T15:20:44.647Z,30.68
2023-04-27T15:23:46.211Z,29.66
2023-04-27T15:26:48.469Z,29.78
2023-04-27T15:29:49.918Z,29.09
2023-04-27T15:32:51.489Z,26.23
2023-04-27T15:35:53.033Z,26.28
2023-04-27T15:38:54.739Z,25.93
2023-04-27T15:41:58.287Z,26.09
2023-04-27T15:45:00.704Z,25.76
2023-04-27T15:48:02.281Z,25.57
2023-04-27T15:51:07.563Z,25.28
2023-04-27T15:54:11.342Z,25.47
2023-04-27T15:57:12.875Z,25.29
2023-04-27T16:00:16.611Z,25.37
2023-04-27T16:03:18.211Z,25.10
2023-04-27T16:06:19.761Z,24.87
2023-04-27T16:09:23.252Z,24.97
2023-04-27T16:12:24.691Z,24.07
2023-04-27T16:15:26.983Z,24.66
2023-04-27T16:18:28.653Z,24.43
2023-04-27T16:21:30.144Z,22.49
2023-04-27T16:24:31.729Z,20.57
2023-04-27T16:27:39.564Z,18.69
2023-04-27T16:30:41.371Z,18.31
2023-04-27T16:33:42.881Z,17.42
2023-04-27T16:36:44.568Z,17.43
2023-04-27T16:39:46.521Z,17.02
2023-04-27T16:42:48.032Z,17.39
2023-04-27T16:45:49.691Z,17.10
2023-04-27T16:48:51.359Z,16.97
2023-04-27T16:51:54.399Z,16.73
2023-04-27T16:54:55.871Z,16.40
2023-04-27T16:57:57.404Z,17.72
2023-04-27T17:00:58.970Z,19.49
2023-04-27T17:04:03.512Z,21.40
2023-04-27T17:07:06.308Z,22.00
2023-04-27T17:10:09.170Z,22.44
2023-04-27T17:13:12.275Z,23.77
2023-04-27T17:16:16.076Z,26.23
2023-04-27T17:19:17.621Z,27.59
2023-04-27T17:22:19.338Z,29.54
